createdAt,value
2023-02-15T00:01:21.094Z,0.88
2023-02-15T00:04:46.533Z,0.82
2023-02-15T00:07:49.148Z,0.82
2023-02-15T00:10:51.779Z,0.78
2023-02-15T00:13:54.321Z,0.76
2023-02-15T00:17:00.609Z,0.64
2023-02-15T00:20:05.001Z,0.65
2023-02-15T00:23:07.563Z,0.54
2023-02-15T00:26:12.318Z,0.57
2023-02-15T00:29:17.000Z,0.57
2023-02-15T00:32:19.561Z,0.48
2023-02-15T00:35:23.499Z,0.52
2023-02-15T00:38:26.516Z,0.48
2023-02-15T00:41:35.979Z,0.52
2023-02-15T00:44:38.617Z,0.59
2023-02-15T00:47:41.811Z,0.57
2023-02-15T00:50:48.263Z,0.60
2023-02-15T00:53:50.948Z,0.53
2023-02-15T00:56:53.565Z,0.57
2023-02-15T00:59:56.108Z,0.52
2023-02-15T01:02:58.657Z,0.45
2023-02-15T01:06:03.097Z,0.43
2023-02-15T01:09:06.099Z,0.42
2023-02-15T01:12:09.676Z,0.43
2023-02-15T01:15:12.431Z,0.42
2023-02-15T01:18:15.014Z,0.38
2023-02-15T01:21:22.187Z,0.40
2023-02-15T01:24:24.731Z,0.36
2023-02-15T01:27:31.794Z,0.35
2023-02-15T01:30:37.147Z,0.38
2023-02-15T01:33:40.304Z,0.34
2023-02-15T01:36:44.216Z,0.34
2023-02-15T01:39:59.926Z,0.30
2023-02-15T01:43:02.546Z,0.25
2023-02-15T01:46:05.314Z,0.27
2023-02-15T01:49:12.908Z,0.33
2023-02-15T01:52:19.010Z,0.31
2023-02-15T01:55:23.147Z,0.19
2023-02-15T01:58:27.805Z,0.18
2023-02-15T02:01:30.623Z,0.06
2023-02-15T02:04:35.968Z,0.05
2023-02-15T02:07:42.062Z,0.01
2023-02-15T02:10:44.714Z,-0.06
2023-02-15T02:13:47.470Z,0.05
2023-02-15T02:16:55.018Z,-0.05
2023-02-15T02:20:21.753Z,0.02
2023-02-15T02:23:32.274Z,-0.01
2023-02-15T02:26:56.457Z,-0.09
2023-02-15T02:30:32.384Z,-0.07
2023-02-15T02:33:49.277Z,-0.06
2023-02-15T02:36:57.272Z,-0.01
2023-02-15T02:40:06.002Z,-0.05
2023-02-15T02:43:13.280Z,-0.10
2023-02-15T02:46:19.014Z,-0.14
2023-02-15T02:49:32.677Z,-0.09
2023-02-15T02:52:39.333Z,-0.14
2023-02-15T02:55:45.204Z,-0.21
2023-02-15T02:59:04.431Z,-0.21
2023-02-15T03:02:13.852Z,-0.24
2023-02-15T03:05:20.503Z,-0.25
2023-02-15T03:08:23.810Z,-0.28
2023-02-15T03:11:26.600Z,-0.31
2023-02-15T03:14:29.922Z,-0.31
2023-02-15T03:17:34.970Z,-0.41
2023-02-15T03:20:39.016Z,-0.41
2023-02-15T03:23:42.049Z,-0.45
2023-02-15T03:26:46.268Z,-0.45
2023-02-15T03:29:52.248Z,-0.53
2023-02-15T03:32:55.290Z,-0.57
2023-02-15T03:36:03.929Z,-0.52
2023-02-15T03:39:12.102Z,-0.58
2023-02-15T03:42:17.183Z,-0.57
2023-02-15T03:45:24.499Z,-0.65
2023-02-15T03:48:29.869Z,-0.62
2023-02-15T03:51:37.412Z,-0.68
2023-02-15T03:54:48.131Z,-0.64
2023-02-15T03:58:08.653Z,-0.64
2023-02-15T04:01:35.095Z,-0.72
2023-02-15T04:04:39.079Z,-0.77
2023-02-15T04:07:43.405Z,-0.66
2023-02-15T04:10:55.757Z,-0.70
2023-02-15T04:13:58.416Z,-0.74
2023-02-15T04:17:00.646Z,-0.79
2023-02-15T04:20:21.001Z,-0.81
2023-02-15T04:23:43.111Z,-0.83
2023-02-15T04:26:45.931Z,-0.94
2023-02-15T04:29:50.854Z,-0.92
2023-02-15T04:32:53.629Z,-0.85
2023-02-15T04:35:57.261Z,-0.84
2023-02-15T04:39:01.305Z,-0.90
2023-02-15T04:42:03.972Z,-0.90
2023-02-15T04:45:07.306Z,-0.93
2023-02-15T04:48:10.134Z,-0.93
2023-02-15T04:51:12.964Z,-0.96
2023-02-15T04:54:17.240Z,-0.99
2023-02-15T04:57:19.931Z,-1.03
2023-02-15T05:00:22.605Z,-0.59
2023-02-15T05:03:25.589Z,-0.68
2023-02-15T05:06:28.224Z,-0.79
2023-02-15T05:09:58.066Z,-1.05
2023-02-15T05:13:02.549Z,-1.19
2023-02-15T05:16:05.811Z,-1.26
2023-02-15T05:19:08.463Z,-1.29
2023-02-15T05:22:11.049Z,-1.27
2023-02-15T05:25:32.925Z,-1.11
2023-02-15T05:28:35.612Z,-1.09
2023-02-15T05:31:39.090Z,-1.19
2023-02-15T05:34:42.056Z,-1.17
2023-02-15T05:37:44.685Z,-1.27
2023-02-15T05:40:50.161Z,-1.32
2023-02-15T05:43:53.652Z,-1.31
2023-02-15T05:46:56.435Z,-1.48
2023-02-15T05:49:59.171Z,-1.54
2023-02-15T05:53:01.845Z,-1.51
2023-02-15T05:56:07.107Z,-1.50
2023-02-15T05:59:09.998Z,-1.29
2023-02-15T06:02:14.048Z,-1.12
2023-02-15T06:05:16.853Z,-0.92
2023-02-15T06:08:20.568Z,-0.87
2023-02-15T06:11:24.522Z,-0.84
2023-02-15T06:14:26.963Z,-0.76
2023-02-15T06:17:29.642Z,-0.79
2023-02-15T06:20:32.292Z,-0.85
2023-02-15T06:23:34.924Z,-1.00
2023-02-15T06:26:39.076Z,-1.21
2023-02-15T06:29:41.680Z,-1.17
2023-02-15T06:32:44.392Z,-0.97
2023-02-15T06:35:47.563Z,-0.86
2023-02-15T06:38:50.144Z,-0.93
2023-02-15T06:41:54.148Z,-0.91
2023-02-15T06:44:56.810Z,-0.81
2023-02-15T06:47:59.562Z,-0.82
2023-02-15T06:51:02.189Z,-0.82
2023-02-15T06:54:04.863Z,-0.65
2023-02-15T06:57:10.488Z,-0.35
2023-02-15T07:00:14.563Z,-0.19
2023-02-15T07:03:17.390Z,-0.03
2023-02-15T07:06:19.994Z,-0.01
2023-02-15T07:09:22.691Z,0.02
2023-02-15T07:12:45.463Z,0.07
2023-02-15T07:15:49.111Z,0.12
2023-02-15T07:18:51.869Z,0.25
2023-02-15T07:21:54.519Z,0.42
2023-02-15T07:25:15.733Z,0.47
2023-02-15T07:28:23.442Z,0.57
2023-02-15T07:31:26.310Z,0.69
2023-02-15T07:34:30.955Z,0.91
2023-02-15T07:37:34.874Z,0.98
2023-02-15T07:41:08.738Z,0.84
2023-02-15T07:44:26.994Z,0.92
2023-02-15T07:47:54.792Z,1.06
2023-02-15T07:51:15.516Z,1.19
2023-02-15T07:54:19.985Z,1.38
2023-02-15T07:57:22.708Z,1.50
2023-02-15T08:00:31.013Z,1.48
2023-02-15T08:03:37.014Z,1.55
2023-02-15T08:06:49.098Z,1.73
2023-02-15T08:10:00.778Z,1.88
2023-02-15T08:13:08.317Z,2.01
2023-02-15T08:16:51.907Z,1.94
2023-02-15T08:19:56.392Z,2.11
2023-02-15T08:23:04.346Z,2.24
2023-02-15T08:26:19.128Z,2.24
2023-02-15T08:33:25.986Z,2.48
2023-02-15T08:36:31.187Z,2.62
2023-02-15T08:39:47.417Z,2.79
2023-02-15T08:42:54.677Z,2.98
2023-02-15T08:46:35.240Z,3.23
2023-02-15T08:49:39.931Z,3.16
2023-02-15T08:52:46.869Z,2.96
2023-02-15T08:55:52.717Z,3.21
2023-02-15T08:59:00.262Z,3.09
2023-02-15T09:02:12.241Z,3.10
2023-02-15T09:05:17.219Z,3.22
2023-02-15T09:08:31.646Z,3.41
2023-02-15T09:11:36.543Z,3.84
2023-02-15T09:14:39.395Z,3.88
2023-02-15T09:17:42.528Z,3.99
2023-02-15T09:20:56.472Z,4.04
2023-02-15T09:24:33.432Z,4.26
2023-02-15T09:27:50.667Z,4.29
2023-02-15T09:34:36.790Z,3.98
2023-02-15T09:37:40.692Z,3.71
2023-02-15T09:40:44.834Z,3.50
2023-02-15T09:43:52.603Z,3.48
2023-02-15T09:47:06.467Z,3.36
2023-02-15T09:50:14.417Z,2.76
2023-02-15T09:53:29.650Z,2.49
2023-02-15T09:56:37.978Z,2.54
2023-02-15T09:59:46.204Z,2.76
2023-02-15T10:03:06.180Z,3.06
2023-02-15T10:06:24.948Z,3.15
2023-02-15T10:09:47.770Z,3.19
2023-02-15T10:13:01.946Z,3.25
2023-02-15T10:16:09.725Z,3.49
2023-02-15T10:19:16.235Z,3.53
2023-02-15T10:22:29.636Z,3.70
2023-02-15T10:25:40.698Z,3.82
2023-02-15T10:28:48.233Z,3.79
2023-02-15T10:32:00.349Z,3.91
2023-02-15T10:35:06.588Z,3.85
2023-02-15T10:38:18.744Z,4.17
2023-02-15T10:41:39.359Z,4.26
2023-02-15T10:44:58.152Z,4.44
2023-02-15T10:48:24.035Z,4.61
2023-02-15T10:51:38.807Z,4.88
2023-02-15T10:54:51.015Z,4.96
2023-02-15T10:58:03.836Z,5.22
2023-02-15T11:01:18.179Z,5.55
2023-02-15T11:04:42.190Z,5.56
2023-02-15T11:07:47.512Z,5.80
2023-02-15T11:10:54.540Z,6.01
2023-02-15T11:14:18.282Z,6.14
2023-02-15T11:17:25.494Z,6.17
2023-02-15T11:20:30.694Z,6.25
2023-02-15T11:23:34.368Z,6.53
2023-02-15T11:26:40.446Z,6.51
2023-02-15T11:29:52.969Z,6.78
2023-02-15T11:32:57.836Z,6.81
2023-02-15T11:36:02.934Z,6.61
2023-02-15T11:39:10.207Z,6.87
2023-02-15T11:42:16.633Z,7.06
2023-02-15T11:45:25.323Z,6.98
2023-02-15T11:48:28.317Z,7.11
2023-02-15T11:51:31.090Z,7.24
2023-02-15T11:54:36.639Z,7.35
2023-02-15T11:57:42.342Z,7.53
2023-02-15T12:00:48.196Z,7.68
2023-02-15T12:03:53.210Z,7.78
2023-02-15T12:07:03.425Z,7.82
2023-02-15T12:10:18.507Z,7.87
2023-02-15T12:13:22.192Z,7.90
2023-02-15T12:16:27.414Z,8.04
2023-02-15T12:19:33.878Z,8.16
2023-02-15T12:22:42.683Z,8.34
2023-02-15T12:25:53.809Z,8.34
2023-02-15T12:29:05.149Z,8.30
2023-02-15T12:32:12.652Z,8.46
2023-02-15T12:35:22.578Z,8.55
2023-02-15T12:38:26.934Z,8.69
2023-02-15T12:41:39.127Z,8.83
2023-02-15T12:44:58.978Z,9.04
2023-02-15T12:48:17.995Z,9.16
2023-02-15T12:51:22.241Z,9.27
2023-02-15T12:54:32.006Z,9.40
2023-02-15T12:57:35.914Z,9.62
2023-02-15T13:00:44.502Z,9.73
2023-02-15T13:04:08.035Z,9.78
2023-02-15T13:07:14.056Z,9.85
2023-02-15T13:10:26.325Z,10.11
2023-02-15T13:13:31.473Z,14.31
2023-02-15T13:16:36.243Z,21.53
2023-02-15T13:19:43.481Z,25.35
2023-02-15T13:22:48.132Z,27.95
2023-02-15T13:25:51.681Z,29.46
2023-02-15T13:28:54.938Z,30.11
2023-02-15T13:31:59.597Z,29.84
2023-02-15T13:35:06.386Z,30.86
2023-02-15T13:38:24.087Z,30.73
2023-02-15T13:41:32.864Z,32.34
2023-02-15T13:45:10.528Z,33.23
2023-02-15T13:48:18.343Z,33.57
2023-02-15T13:51:27.352Z,33.84
2023-02-15T13:55:03.667Z,33.83
2023-02-15T13:58:17.950Z,33.47
2023-02-15T14:01:25.453Z,34.19
2023-02-15T14:04:46.622Z,34.84
2023-02-15T14:07:58.794Z,35.68
2023-02-15T14:11:07.087Z,34.52
2023-02-15T14:14:27.964Z,34.79
2023-02-15T14:17:37.186Z,34.60
2023-02-15T14:20:51.100Z,35.81
2023-02-15T14:24:03.653Z,35.68
2023-02-15T14:27:14.746Z,35.90
2023-02-15T14:30:21.392Z,35.64
2023-02-15T14:33:35.274Z,35.72
2023-02-15T14:36:38.543Z,36.44
2023-02-15T14:40:14.366Z,36.46
2023-02-15T14:43:53.223Z,33.26
2023-02-15T14:47:03.810Z,24.96
2023-02-15T14:50:45.207Z,19.70
2023-02-15T14:53:47.937Z,16.15
2023-02-15T14:57:24.342Z,14.51
2023-02-15T15:00:46.427Z,13.52
2023-02-15T15:03:59.191Z,12.92
2023-02-15T15:07:19.978Z,12.54
2023-02-15T15:11:37.312Z,12.32
2023-02-15T15:14:52.676Z,12.26
2023-02-15T15:18:05.113Z,13.15
2023-02-15T15:21:09.835Z,17.29
2023-02-15T15:24:54.829Z,23.12
2023-02-15T15:27:58.241Z,23.74
2023-02-15T15:31:09.647Z,25.57
2023-02-15T15:34:44.479Z,26.08
2023-02-15T15:41:44.529Z,27.15
2023-02-15T15:45:22.627Z,24.22
2023-02-15T15:48:45.124Z,19.27
2023-02-15T15:52:05.004Z,15.59
2023-02-15T15:55:21.912Z,13.51
2023-02-15T15:58:34.234Z,12.30
2023-02-15T16:01:42.157Z,11.45
2023-02-15T16:04:49.288Z,10.79
2023-02-15T16:08:03.590Z,10.34
2023-02-15T16:11:26.283Z,9.83
2023-02-15T16:14:35.214Z,9.39
2023-02-15T16:17:43.198Z,9.01
2023-02-15T16:20:54.887Z,8.73
2023-02-15T16:24:10.501Z,8.47
2023-02-15T16:27:21.351Z,8.22
2023-02-15T16:30:29.917Z,7.99
2023-02-15T16:33:38.175Z,7.86
2023-02-15T16:36:42.180Z,7.72
2023-02-15T16:39:46.037Z,7.66
2023-02-15T16:42:48.713Z,7.51
2023-02-15T16:45:51.635Z,7.33
2023-02-15T16:49:11.837Z,7.17
2023-02-15T16:52:17.825Z,6.98
2023-02-15T16:55:23.499Z,6.77
2023-02-15T16:58:30.571Z,6.68
2023-02-15T17:01:35.326Z,6.50
2023-02-15T17:04:40.208Z,6.33
2023-02-15T17:08:10.125Z,6.19
2023-02-15T17:11:37.194Z,6.22
2023-02-15T17:14:52.674Z,6.02
2023-02-15T17:18:06.049Z,5.93
2023-02-15T17:21:31.288Z,5.77
2023-02-15T17:24:52.906Z,5.65
2023-02-15T17:27:58.287Z,5.64
2023-02-15T17:31:26.994Z,5.70
2023-02-15T17:38:34.325Z,5.47
2023-02-15T17:41:39.107Z,5.36
2023-02-15T17:44:41.765Z,5.24
2023-02-15T17:47:45.371Z,5.18
2023-02-15T17:50:47.978Z,5.12
2023-02-15T17:54:05.116Z,5.06
2023-02-15T17:57:13.238Z,5.06
2023-02-15T18:00:34.678Z,5.00
2023-02-15T18:04:00.430Z,4.94
2023-02-15T18:07:21.090Z,4.92
2023-02-15T18:10:41.403Z,4.80
2023-02-15T18:13:45.613Z,4.67
2023-02-15T18:16:48.352Z,4.69
2023-02-15T18:19:51.020Z,4.69
2023-02-15T18:22:54.313Z,4.65
2023-02-15T18:25:56.920Z,4.69
2023-02-15T18:29:01.101Z,4.72
2023-02-15T18:32:03.936Z,4.58
2023-02-15T18:35:07.041Z,4.46
2023-02-15T18:38:11.230Z,4.38
2023-02-15T18:41:18.435Z,4.46
2023-02-15T18:44:22.531Z,4.41
2023-02-15T18:47:25.591Z,4.29
2023-02-15T18:50:30.969Z,4.35
2023-02-15T18:53:34.112Z,4.32
2023-02-15T18:56:37.243Z,4.21
2023-02-15T18:59:41.483Z,4.26
2023-02-15T19:02:44.426Z,4.22
2023-02-15T19:05:48.753Z,4.30
2023-02-15T19:08:52.660Z,4.25
2023-02-15T19:11:55.511Z,4.29
2023-02-15T19:15:00.186Z,4.17
2023-02-15T19:18:02.921Z,4.17
2023-02-15T19:21:06.082Z,4.06
2023-02-15T19:24:15.020Z,3.94
2023-02-15T19:27:23.598Z,3.92
2023-02-15T19:30:30.257Z,3.97
2023-02-15T19:33:33.035Z,3.86
2023-02-15T19:36:35.672Z,3.70
2023-02-15T19:39:40.453Z,3.74
2023-02-15T19:42:43.087Z,3.72
2023-02-15T19:45:47.431Z,3.79
2023-02-15T19:48:51.101Z,3.71
2023-02-15T19:51:54.158Z,3.85
2023-02-15T19:54:57.564Z,3.76
2023-02-15T19:58:01.918Z,3.70
2023-02-15T20:01:07.635Z,3.66
2023-02-15T20:04:10.185Z,3.69
2023-02-15T20:07:19.795Z,3.69
2023-02-15T20:10:23.943Z,3.78
2023-02-15T20:13:28.736Z,3.65
2023-02-15T20:16:38.720Z,3.59
2023-02-15T20:19:41.708Z,3.54
2023-02-15T20:22:45.529Z,3.55
2023-02-15T20:25:48.130Z,3.53
2023-02-15T20:28:51.137Z,3.57
2023-02-15T20:31:55.768Z,3.60
2023-02-15T20:35:00.077Z,3.70
2023-02-15T20:38:04.905Z,3.65
2023-02-15T20:41:31.450Z,3.50
2023-02-15T20:44:35.301Z,3.44
2023-02-15T20:47:39.551Z,3.42
2023-02-15T20:50:42.584Z,3.30
2023-02-15T20:54:06.415Z,3.26
2023-02-15T20:57:12.707Z,3.21
2023-02-15T21:00:19.110Z,3.19
2023-02-15T21:03:26.480Z,3.20
2023-02-15T21:06:29.433Z,3.23
2023-02-15T21:09:33.247Z,3.27
2023-02-15T21:12:35.807Z,3.34
2023-02-15T21:15:40.280Z,3.19
2023-02-15T21:19:10.498Z,3.10
2023-02-15T21:22:21.425Z,3.01
2023-02-15T21:25:28.031Z,3.00
2023-02-15T21:28:31.565Z,2.93
2023-02-15T21:31:37.297Z,2.91
2023-02-15T21:34:41.348Z,3.00
2023-02-15T21:37:44.400Z,2.98
2023-02-15T21:40:47.194Z,2.92
2023-02-15T21:47:52.578Z,2.71
2023-02-15T21:51:14.385Z,2.75
2023-02-15T21:54:18.617Z,2.97
2023-02-15T21:57:22.372Z,3.06
2023-02-15T22:00:25.588Z,2.96
2023-02-15T22:03:32.782Z,2.83
2023-02-15T22:06:36.671Z,2.81
2023-02-15T22:09:39.109Z,2.81
2023-02-15T22:12:43.472Z,2.95
2023-02-15T22:15:47.585Z,3.00
2023-02-15T22:18:50.273Z,2.94
2023-02-15T22:21:54.460Z,2.96
2023-02-15T22:24:57.037Z,2.95
2023-02-15T22:28:00.506Z,2.77
2023-02-15T22:31:04.321Z,2.66
2023-02-15T22:34:07.205Z,2.76
2023-02-15T22:37:11.280Z,2.71
2023-02-15T22:40:16.859Z,2.65
2023-02-15T22:43:36.323Z,2.58
2023-02-15T22:46:39.271Z,2.44
2023-02-15T22:49:42.781Z,2.39
2023-02-15T22:52:47.021Z,2.35
2023-02-15T22:55:49.961Z,2.45
2023-02-15T22:58:53.010Z,2.51
2023-02-15T23:01:56.341Z,2.52
2023-02-15T23:04:59.483Z,2.52
2023-02-15T23:08:03.677Z,2.44
2023-02-15T23:11:07.078Z,2.31
2023-02-15T23:14:25.907Z,2.32
2023-02-15T23:17:28.495Z,2.36
2023-02-15T23:20:31.079Z,2.36
2023-02-15T23:23:36.472Z,2.47
2023-02-15T23:26:39.069Z,2.61
2023-02-15T23:29:41.766Z,2.62
2023-02-15T23:32:44.397Z,2.45
2023-02-15T23:35:47.189Z,2.21
2023-02-15T23:38:51.370Z,2.12
2023-02-15T23:41:52.972Z,2.20
2023-02-15T23:44:55.907Z,2.23
2023-02-15T23:48:16.241Z,2.18
2023-02-15T23:51:19.275Z,2.05
2023-02-15T23:54:24.735Z,1.87
2023-02-15T23:57:27.319Z,1.92
